sensor_id;sensor_type;location;lat;lon;timestamp;P1;durP1;ratioP1;P2;durP2;ratioP2
41514;SDS011;27247;48.020;16.720;2024-03-23T00:57:48;14.02;;;10.27;;
41514;SDS011;27247;48.020;16.720;2024-03-23T01:01:58;15.53;;;8.93;;
41514;SDS011;27247;48.020;16.720;2024-03-23T01:06:08;14.88;;;8.25;;
41514;SDS011;27247;48.020;16.720;2024-03-23T01:10:19;11.50;;;7.80;;
41514;SDS011;27247;48.020;16.720;2024-03-23T01:14:29;10.53;;;7.40;;
41514;SDS011;27247;48.020;16.720;2024-03-23T01:18:39;11.37;;;7.90;;
41514;SDS011;27247;48.020;16.720;2024-03-23T01:22:49;13.63;;;9.03;;
41514;SDS011;27247;48.020;16.720;2024-03-23T01:27:00;15.13;;;10.47;;
41514;SDS011;27247;48.020;16.720;2024-03-23T01:31:10;21.93;;;10.97;;
41514;SDS011;27247;48.020;16.720;2024-03-23T01:35:20;22.10;;;11.27;;
41514;SDS011;27247;48.020;16.720;2024-03-23T01:39:30;17.93;;;10.97;;
41514;SDS011;27247;48.020;16.720;2024-03-23T01:43:41;20.50;;;10.87;;
41514;SDS011;27247;48.020;16.720;2024-03-23T01:47:51;16.00;;;10.47;;
41514;SDS011;27247;48.020;16.720;2024-03-23T01:52:02;16.23;;;9.90;;
41514;SDS011;27247;48.020;16.720;2024-03-23T01:56:13;15.65;;;9.73;;
41514;SDS011;27247;48.020;16.720;2024-03-23T02:00:24;16.27;;;9.98;;
41514;SDS011;27247;48.020;16.720;2024-03-23T02:04:35;18.83;;;10.35;;
41514;SDS011;27247;48.020;16.720;2024-03-23T02:08:45;19.43;;;10.47;;
41514;SDS011;27247;48.020;16.720;2024-03-23T02:12:55;21.03;;;10.33;;
41514;SDS011;27247;48.020;16.720;2024-03-23T02:17:06;16.10;;;10.98;;
41514;SDS011;27247;48.020;16.720;2024-03-23T02:21:16;13.40;;;9.77;;
41514;SDS011;27247;48.020;16.720;2024-03-23T02:25:26;15.02;;;9.68;;
41514;SDS011;27247;48.020;16.720;2024-03-23T02:29:36;22.20;;;11.27;;
41514;SDS011;27247;48.020;16.720;2024-03-23T02:33:47;18.37;;;10.87;;
41514;SDS011;27247;48.020;16.720;2024-03-23T02:37:57;17.13;;;10.67;;
41514;SDS011;27247;48.020;16.720;2024-03-23T02:42:07;17.70;;;10.43;;
41514;SDS011;27247;48.020;16.720;2024-03-23T02:46:18;21.38;;;11.70;;
41514;SDS011;27247;48.020;16.720;2024-03-23T02:50:28;20.42;;;13.73;;
41514;SDS011;27247;48.020;16.720;2024-03-23T02:54:38;18.48;;;12.32;;
41514;SDS011;27247;48.020;16.720;2024-03-23T02:58:49;19.13;;;11.47;;
41514;SDS011;27247;48.020;16.720;2024-03-23T03:02:59;24.43;;;12.57;;
41514;SDS011;27247;48.020;16.720;2024-03-23T03:07:09;18.90;;;12.53;;
41514;SDS011;27247;48.020;16.720;2024-03-23T03:11:19;21.63;;;12.07;;
41514;SDS011;27247;48.020;16.720;2024-03-23T03:15:30;20.70;;;13.27;;
41514;SDS011;27247;48.020;16.720;2024-03-23T03:19:40;22.40;;;12.57;;
41514;SDS011;27247;48.020;16.720;2024-03-23T03:23:50;25.85;;;12.82;;
41514;SDS011;27247;48.020;16.720;2024-03-23T03:28:01;20.17;;;12.60;;
41514;SDS011;27247;48.020;16.720;2024-03-23T03:32:11;23.60;;;14.02;;
41514;SDS011;27247;48.020;16.720;2024-03-23T03:36:22;23.23;;;13.25;;
41514;SDS011;27247;48.020;16.720;2024-03-23T03:40:32;23.20;;;14.03;;
41514;SDS011;27247;48.020;16.720;2024-03-23T03:44:42;24.60;;;14.15;;
41514;SDS011;27247;48.020;16.720;2024-03-23T03:48:53;23.80;;;14.23;;
41514;SDS011;27247;48.020;16.720;2024-03-23T03:53:04;28.75;;;14.80;;
41514;SDS011;27247;48.020;16.720;2024-03-23T03:57:15;21.27;;;13.50;;
41514;SDS011;27247;48.020;16.720;2024-03-23T04:01:25;22.53;;;13.67;;
41514;SDS011;27247;48.020;16.720;2024-03-23T04:05:35;23.97;;;13.00;;
41514;SDS011;27247;48.020;16.720;2024-03-23T04:09:46;26.50;;;13.67;;
41514;SDS011;27247;48.020;16.720;2024-03-23T04:13:56;24.67;;;14.57;;
41514;SDS011;27247;48.020;16.720;2024-03-23T04:18:06;24.13;;;14.37;;
41514;SDS011;27247;48.020;16.720;2024-03-23T04:22:17;20.33;;;13.87;;
41514;SDS011;27247;48.020;16.720;2024-03-23T04:26:27;17.90;;;12.33;;
41514;SDS011;27247;48.020;16.720;2024-03-23T04:30:37;25.50;;;13.83;;
41514;SDS011;27247;48.020;16.720;2024-03-23T04:34:47;21.73;;;14.17;;
41514;SDS011;27247;48.020;16.720;2024-03-23T04:38:59;24.13;;;13.70;;
41514;SDS011;27247;48.020;16.720;2024-03-23T04:43:10;23.13;;;14.82;;
41514;SDS011;27247;48.020;16.720;2024-03-23T04:47:20;23.23;;;14.90;;
41514;SDS011;27247;48.020;16.720;2024-03-23T04:51:35;24.60;;;16.00;;
41514;SDS011;27247;48.020;16.720;2024-03-23T04:55:46;23.17;;;15.32;;
41514;SDS011;27247;48.020;16.720;2024-03-23T04:59:56;23.27;;;14.37;;
41514;SDS011;27247;48.020;16.720;2024-03-23T05:04:08;24.75;;;14.75;;
41514;SDS011;27247;48.020;16.720;2024-03-23T05:08:19;26.40;;;15.05;;
41514;SDS011;27247;48.020;16.720;2024-03-23T05:12:29;24.15;;;15.77;;
41514;SDS011;27247;48.020;16.720;2024-03-23T05:16:39;23.30;;;14.23;;
41514;SDS011;27247;48.020;16.720;2024-03-23T05:20:55;23.50;;;15.18;;
41514;SDS011;27247;48.020;16.720;2024-03-23T05:25:06;22.77;;;14.57;;
41514;SDS011;27247;48.020;16.720;2024-03-23T05:29:17;23.55;;;14.80;;
41514;SDS011;27247;48.020;16.720;2024-03-23T05:33:28;27.13;;;13.43;;
41514;SDS011;27247;48.020;16.720;2024-03-23T05:37:38;20.20;;;13.40;;
41514;SDS011;27247;48.020;16.720;2024-03-23T05:41:48;24.70;;;13.77;;
41514;SDS011;27247;48.020;16.720;2024-03-23T05:45:59;23.00;;;13.50;;
41514;SDS011;27247;48.020;16.720;2024-03-23T05:50:10;23.38;;;14.50;;
41514;SDS011;27247;48.020;16.720;2024-03-23T05:54:22;24.20;;;14.45;;
41514;SDS011;27247;48.020;16.720;2024-03-23T05:58:33;21.77;;;14.60;;
41514;SDS011;27247;48.020;16.720;2024-03-23T06:02:43;23.75;;;14.60;;
41514;SDS011;27247;48.020;16.720;2024-03-23T06:06:56;24.40;;;14.20;;
41514;SDS011;27247;48.020;16.720;2024-03-23T06:11:07;23.08;;;14.00;;
41514;SDS011;27247;48.020;16.720;2024-03-23T06:15:18;21.35;;;12.80;;
41514;SDS011;27247;48.020;16.720;2024-03-23T06:19:29;19.73;;;13.68;;
41514;SDS011;27247;48.020;16.720;2024-03-23T06:23:40;16.63;;;12.02;;
41514;SDS011;27247;48.020;16.720;2024-03-23T06:27:51;20.67;;;11.98;;
41514;SDS011;27247;48.020;16.720;2024-03-23T06:32:02;26.83;;;13.03;;
41514;SDS011;27247;48.020;16.720;2024-03-23T06:36:13;20.88;;;12.88;;
41514;SDS011;27247;48.020;16.720;2024-03-23T06:40:24;18.43;;;11.73;;
41514;SDS011;27247;48.020;16.720;2024-03-23T06:44:34;22.00;;;11.40;;
41514;SDS011;27247;48.020;16.720;2024-03-23T06:48:45;17.97;;;11.90;;
41514;SDS011;27247;48.020;16.720;2024-03-23T06:52:55;20.83;;;12.38;;
41514;SDS011;27247;48.020;16.720;2024-03-23T06:57:06;21.07;;;11.80;;
41514;SDS011;27247;48.020;16.720;2024-03-23T07:01:17;18.00;;;10.93;;
41514;SDS011;27247;48.020;16.720;2024-03-23T07:05:27;15.60;;;10.37;;
41514;SDS011;27247;48.020;16.720;2024-03-23T07:09:38;15.90;;;11.25;;
41514;SDS011;27247;48.020;16.720;2024-03-23T07:13:51;16.52;;;10.68;;
41514;SDS011;27247;48.020;16.720;2024-03-23T07:18:04;17.50;;;11.57;;
41514;SDS011;27247;48.020;16.720;2024-03-23T07:22:15;17.45;;;11.77;;
41514;SDS011;27247;48.020;16.720;2024-03-23T07:26:25;18.10;;;11.70;;
41514;SDS011;27247;48.020;16.720;2024-03-23T07:30:35;21.00;;;13.20;;
41514;SDS011;27247;48.020;16.720;2024-03-23T07:34:46;17.40;;;12.25;;
41514;SDS011;27247;48.020;16.720;2024-03-23T07:38:57;18.87;;;11.40;;
41514;SDS011;27247;48.020;16.720;2024-03-23T07:43:07;15.88;;;11.07;;
41514;SDS011;27247;48.020;16.720;2024-03-23T07:47:18;16.83;;;11.77;;
41514;SDS011;27247;48.020;16.720;2024-03-23T07:51:28;17.07;;;11.10;;
41514;SDS011;27247;48.020;16.720;2024-03-23T07:55:38;18.50;;;11.47;;
41514;SDS011;27247;48.020;16.720;2024-03-23T07:59:48;21.30;;;10.83;;
41514;SDS011;27247;48.020;16.720;2024-03-23T08:03:59;20.35;;;11.48;;
41514;SDS011;27247;48.020;16.720;2024-03-23T08:08:09;15.98;;;11.05;;
41514;SDS011;27247;48.020;16.720;2024-03-23T08:12:20;22.98;;;11.50;;
41514;SDS011;27247;48.020;16.720;2024-03-23T08:16:31;15.53;;;10.83;;
41514;SDS011;27247;48.020;16.720;2024-03-23T08:20:41;19.35;;;11.48;;
41514;SDS011;27247;48.020;16.720;2024-03-23T08:24:52;20.42;;;12.45;;
41514;SDS011;27247;48.020;16.720;2024-03-23T08:29:02;15.93;;;11.33;;
41514;SDS011;27247;48.020;16.720;2024-03-23T08:33:12;17.58;;;10.88;;
41514;SDS011;27247;48.020;16.720;2024-03-23T08:37:23;18.92;;;11.40;;
41514;SDS011;27247;48.020;16.720;2024-03-23T08:41:34;20.52;;;10.68;;
41514;SDS011;27247;48.020;16.720;2024-03-23T08:45:45;16.50;;;11.27;;
41514;SDS011;27247;48.020;16.720;2024-03-23T08:49:55;16.48;;;10.52;;
41514;SDS011;27247;48.020;16.720;2024-03-23T08:54:07;13.43;;;9.40;;
41514;SDS011;27247;48.020;16.720;2024-03-23T08:58:17;16.43;;;9.57;;
41514;SDS011;27247;48.020;16.720;2024-03-23T09:02:30;17.70;;;10.38;;
41514;SDS011;27247;48.020;16.720;2024-03-23T09:06:42;16.53;;;9.67;;
41514;SDS011;27247;48.020;16.720;2024-03-23T09:10:52;12.30;;;9.23;;
41514;SDS011;27247;48.020;16.720;2024-03-23T09:15:03;17.80;;;8.93;;
41514;SDS011;27247;48.020;16.720;2024-03-23T09:19:14;13.25;;;8.45;;
41514;SDS011;27247;48.020;16.720;2024-03-23T09:23:24;15.20;;;8.63;;
41514;SDS011;27247;48.020;16.720;2024-03-23T09:27:35;11.85;;;8.75;;
41514;SDS011;27247;48.020;16.720;2024-03-23T09:31:45;14.05;;;7.82;;
41514;SDS011;27247;48.020;16.720;2024-03-23T09:35:55;10.55;;;7.72;;
41514;SDS011;27247;48.020;16.720;2024-03-23T09:40:10;14.80;;;8.02;;
41514;SDS011;27247;48.020;16.720;2024-03-23T09:44:21;10.43;;;8.18;;
41514;SDS011;27247;48.020;16.720;2024-03-23T09:48:32;14.05;;;9.18;;
41514;SDS011;27247;48.020;16.720;2024-03-23T09:52:42;10.82;;;7.90;;
41514;SDS011;27247;48.020;16.720;2024-03-23T09:56:53;9.40;;;7.40;;
41514;SDS011;27247;48.020;16.720;2024-03-23T10:01:03;11.43;;;7.43;;
41514;SDS011;27247;48.020;16.720;2024-03-23T10:05:21;13.50;;;8.02;;
41514;SDS011;27247;48.020;16.720;2024-03-23T10:09:33;13.80;;;8.17;;
41514;SDS011;27247;48.020;16.720;2024-03-23T10:13:44;11.88;;;8.60;;
41514;SDS011;27247;48.020;16.720;2024-03-23T10:17:56;15.02;;;9.70;;
41514;SDS011;27247;48.020;16.720;2024-03-23T10:22:07;12.88;;;8.48;;
41514;SDS011;27247;48.020;16.720;2024-03-23T10:30:37;12.05;;;8.50;;
41514;SDS011;27247;48.020;16.720;2024-03-23T10:34:47;9.50;;;6.90;;
41514;SDS011;27247;48.020;16.720;2024-03-23T10:38:58;11.68;;;6.65;;
41514;SDS011;27247;48.020;16.720;2024-03-23T10:43:09;11.68;;;6.60;;
41514;SDS011;27247;48.020;16.720;2024-03-23T10:47:21;8.27;;;6.03;;
41514;SDS011;27247;48.020;16.720;2024-03-23T10:51:31;11.48;;;6.40;;
41514;SDS011;27247;48.020;16.720;2024-03-23T10:55:41;11.10;;;6.78;;
41514;SDS011;27247;48.020;16.720;2024-03-23T10:59:52;13.10;;;8.00;;
41514;SDS011;27247;48.020;16.720;2024-03-23T11:04:02;14.50;;;10.20;;
41514;SDS011;27247;48.020;16.720;2024-03-23T11:08:26;16.77;;;10.75;;
41514;SDS011;27247;48.020;16.720;2024-03-23T11:12:40;13.30;;;10.32;;
41514;SDS011;27247;48.020;16.720;2024-03-23T11:17:08;15.63;;;10.10;;
41514;SDS011;27247;48.020;16.720;2024-03-23T11:26:06;13.10;;;9.35;;
41514;SDS011;27247;48.020;16.720;2024-03-23T11:30:18;12.23;;;8.98;;
41514;SDS011;27247;48.020;16.720;2024-03-23T11:34:29;13.00;;;9.38;;
41514;SDS011;27247;48.020;16.720;2024-03-23T11:38:40;12.57;;;9.10;;
41514;SDS011;27247;48.020;16.720;2024-03-23T11:42:55;12.57;;;8.20;;
41514;SDS011;27247;48.020;16.720;2024-03-23T11:47:09;9.75;;;7.68;;
41514;SDS011;27247;48.020;16.720;2024-03-23T11:51:20;14.82;;;7.38;;
41514;SDS011;27247;48.020;16.720;2024-03-23T11:55:38;11.33;;;7.30;;
41514;SDS011;27247;48.020;16.720;2024-03-23T12:00:21;11.65;;;6.30;;
41514;SDS011;27247;48.020;16.720;2024-03-23T12:04:32;8.02;;;5.60;;
41514;SDS011;27247;48.020;16.720;2024-03-23T12:08:43;8.65;;;5.75;;
41514;SDS011;27247;48.020;16.720;2024-03-23T12:13:00;7.13;;;6.03;;
41514;SDS011;27247;48.020;16.720;2024-03-23T12:17:11;8.43;;;5.68;;
41514;SDS011;27247;48.020;16.720;2024-03-23T12:21:23;6.93;;;5.43;;
41514;SDS011;27247;48.020;16.720;2024-03-23T12:25:34;6.67;;;5.13;;
41514;SDS011;27247;48.020;16.720;2024-03-23T12:29:45;7.97;;;5.22;;
41514;SDS011;27247;48.020;16.720;2024-03-23T12:33:57;7.90;;;5.85;;
41514;SDS011;27247;48.020;16.720;2024-03-23T12:38:08;9.93;;;5.68;;
41514;SDS011;27247;48.020;16.720;2024-03-23T12:42:18;8.07;;;5.63;;
41514;SDS011;27247;48.020;16.720;2024-03-23T12:46:28;8.43;;;5.23;;
41514;SDS011;27247;48.020;16.720;2024-03-23T12:50:38;7.97;;;5.50;;
41514;SDS011;27247;48.020;16.720;2024-03-23T12:54:49;7.60;;;5.82;;
41514;SDS011;27247;48.020;16.720;2024-03-23T12:58:59;8.18;;;5.38;;
41514;SDS011;27247;48.020;16.720;2024-03-23T13:03:10;5.77;;;4.43;;
41514;SDS011;27247;48.020;16.720;2024-03-23T13:07:23;6.15;;;4.60;;
41514;SDS011;27247;48.020;16.720;2024-03-23T13:11:34;5.78;;;4.50;;
41514;SDS011;27247;48.020;16.720;2024-03-23T13:15:50;7.72;;;4.63;;
41514;SDS011;27247;48.020;16.720;2024-03-23T13:20:01;3.72;;;3.33;;
41514;SDS011;27247;48.020;16.720;2024-03-23T13:24:13;9.57;;;4.05;;
41514;SDS011;27247;48.020;16.720;2024-03-23T13:28:23;5.25;;;3.83;;
41514;SDS011;27247;48.020;16.720;2024-03-23T13:32:34;6.40;;;4.00;;
41514;SDS011;27247;48.020;16.720;2024-03-23T13:36:45;13.48;;;2.58;;
41514;SDS011;27247;48.020;16.720;2024-03-23T13:40:57;28.52;;;2.90;;
41514;SDS011;27247;48.020;16.720;2024-03-23T13:45:08;6.15;;;2.10;;
41514;SDS011;27247;48.020;16.720;2024-03-23T13:49:25;4.88;;;1.58;;
41514;SDS011;27247;48.020;16.720;2024-03-23T13:53:37;2.47;;;1.58;;
41514;SDS011;27247;48.020;16.720;2024-03-23T13:57:48;3.77;;;1.50;;
41514;SDS011;27247;48.020;16.720;2024-03-23T14:01:58;2.00;;;1.33;;
41514;SDS011;27247;48.020;16.720;2024-03-23T14:06:09;3.03;;;1.40;;
41514;SDS011;27247;48.020;16.720;2024-03-23T14:10:20;3.75;;;1.50;;
41514;SDS011;27247;48.020;16.720;2024-03-23T14:14:31;1.83;;;1.20;;
41514;SDS011;27247;48.020;16.720;2024-03-23T14:18:41;10.03;;;2.10;;
41514;SDS011;27247;48.020;16.720;2024-03-23T14:22:51;2.47;;;1.20;;
41514;SDS011;27247;48.020;16.720;2024-03-23T14:27:02;2.47;;;1.65;;
41514;SDS011;27247;48.020;16.720;2024-03-23T14:31:15;1.40;;;1.30;;
41514;SDS011;27247;48.020;16.720;2024-03-23T14:35:25;3.13;;;1.10;;
41514;SDS011;27247;48.020;16.720;2024-03-23T14:39:36;2.95;;;1.60;;
41514;SDS011;27247;48.020;16.720;2024-03-23T14:43:49;1.60;;;1.20;;
41514;SDS011;27247;48.020;16.720;2024-03-23T14:48:01;6.32;;;1.80;;
41514;SDS011;27247;48.020;16.720;2024-03-23T14:52:15;2.38;;;1.25;;
41514;SDS011;27247;48.020;16.720;2024-03-23T14:56:26;1.50;;;1.10;;
41514;SDS011;27247;48.020;16.720;2024-03-23T15:00:37;7.13;;;1.00;;
41514;SDS011;27247;48.020;16.720;2024-03-23T15:04:47;3.73;;;1.30;;
41514;SDS011;27247;48.020;16.720;2024-03-23T15:08:57;1.97;;;1.20;;
41514;SDS011;27247;48.020;16.720;2024-03-23T15:13:07;2.47;;;0.98;;
41514;SDS011;27247;48.020;16.720;2024-03-23T15:17:18;5.05;;;1.50;;
41514;SDS011;27247;48.020;16.720;2024-03-23T15:21:28;6.55;;;0.73;;
41514;SDS011;27247;48.020;16.720;2024-03-23T15:25:38;1.70;;;0.50;;
41514;SDS011;27247;48.020;16.720;2024-03-23T15:29:49;1.23;;;0.60;;
41514;SDS011;27247;48.020;16.720;2024-03-23T15:34:00;0.43;;;0.43;;
41514;SDS011;27247;48.020;16.720;2024-03-23T15:38:10;1.10;;;0.77;;
41514;SDS011;27247;48.020;16.720;2024-03-23T15:42:20;0.68;;;0.60;;
41514;SDS011;27247;48.020;16.720;2024-03-23T15:46:32;0.57;;;0.57;;
41514;SDS011;27247;48.020;16.720;2024-03-23T15:50:49;2.13;;;0.50;;
41514;SDS011;27247;48.020;16.720;2024-03-23T15:55:01;1.07;;;0.70;;
41514;SDS011;27247;48.020;16.720;2024-03-23T15:59:14;1.15;;;1.05;;
41514;SDS011;27247;48.020;16.720;2024-03-23T16:03:24;1.15;;;0.60;;
41514;SDS011;27247;48.020;16.720;2024-03-23T16:07:38;4.35;;;0.85;;
41514;SDS011;27247;48.020;16.720;2024-03-23T16:11:49;2.17;;;0.90;;
41514;SDS011;27247;48.020;16.720;2024-03-23T16:16:02;2.85;;;0.80;;
41514;SDS011;27247;48.020;16.720;2024-03-23T16:20:14;2.20;;;0.98;;
41514;SDS011;27247;48.020;16.720;2024-03-23T16:24:26;4.60;;;1.40;;
41514;SDS011;27247;48.020;16.720;2024-03-23T16:28:37;2.65;;;0.70;;
41514;SDS011;27247;48.020;16.720;2024-03-23T16:32:48;2.35;;;0.90;;
41514;SDS011;27247;48.020;16.720;2024-03-23T16:36:58;2.40;;;0.80;;
41514;SDS011;27247;48.020;16.720;2024-03-23T16:41:10;1.05;;;0.60;;
41514;SDS011;27247;48.020;16.720;2024-03-23T16:45:27;1.15;;;0.60;;
41514;SDS011;27247;48.020;16.720;2024-03-23T16:49:38;1.97;;;0.60;;
41514;SDS011;27247;48.020;16.720;2024-03-23T16:53:49;1.17;;;0.90;;
41514;SDS011;27247;48.020;16.720;2024-03-23T16:57:59;2.70;;;0.65;;
41514;SDS011;27247;48.020;16.720;2024-03-23T17:02:09;2.00;;;0.80;;
41514;SDS011;27247;48.020;16.720;2024-03-23T17:06:20;1.27;;;0.73;;
41514;SDS011;27247;48.020;16.720;2024-03-23T17:10:32;1.67;;;0.85;;
41514;SDS011;27247;48.020;16.720;2024-03-23T17:14:43;1.88;;;0.80;;
41514;SDS011;27247;48.020;16.720;2024-03-23T17:18:54;2.60;;;1.10;;
41514;SDS011;27247;48.020;16.720;2024-03-23T17:23:04;1.40;;;0.80;;
41514;SDS011;27247;48.020;16.720;2024-03-23T17:27:17;6.72;;;1.65;;
41514;SDS011;27247;48.020;16.720;2024-03-23T17:31:29;1.98;;;0.98;;
41514;SDS011;27247;48.020;16.720;2024-03-23T17:35:39;2.40;;;1.70;;
41514;SDS011;27247;48.020;16.720;2024-03-23T17:39:50;3.70;;;1.60;;
41514;SDS011;27247;48.020;16.720;2024-03-23T17:44:00;1.73;;;1.30;;
41514;SDS011;27247;48.020;16.720;2024-03-23T17:48:10;1.48;;;0.90;;
41514;SDS011;27247;48.020;16.720;2024-03-23T17:52:22;1.80;;;1.30;;
41514;SDS011;27247;48.020;16.720;2024-03-23T17:56:32;1.87;;;1.10;;
41514;SDS011;27247;48.020;16.720;2024-03-23T18:00:42;2.22;;;1.10;;
41514;SDS011;27247;48.020;16.720;2024-03-23T18:04:53;1.17;;;1.00;;
41514;SDS011;27247;48.020;16.720;2024-03-23T18:09:07;1.77;;;1.15;;
41514;SDS011;27247;48.020;16.720;2024-03-23T18:13:26;2.63;;;1.17;;
41514;SDS011;27247;48.020;16.720;2024-03-23T18:21:50;1.23;;;1.10;;
41514;SDS011;27247;48.020;16.720;2024-03-23T18:26:00;1.90;;;1.35;;
41514;SDS011;27247;48.020;16.720;2024-03-23T18:30:11;1.30;;;1.00;;
41514;SDS011;27247;48.020;16.720;2024-03-23T18:34:21;2.28;;;1.00;;
41514;SDS011;27247;48.020;16.720;2024-03-23T18:38:31;1.53;;;1.27;;
41514;SDS011;27247;48.020;16.720;2024-03-23T18:42:44;1.02;;;0.85;;
41514;SDS011;27247;48.020;16.720;2024-03-23T18:46:55;2.30;;;1.35;;
41514;SDS011;27247;48.020;16.720;2024-03-23T18:51:05;1.53;;;1.30;;
41514;SDS011;27247;48.020;16.720;2024-03-23T18:55:23;1.58;;;1.48;;
41514;SDS011;27247;48.020;16.720;2024-03-23T18:59:34;2.28;;;2.08;;
41514;SDS011;27247;48.020;16.720;2024-03-23T19:03:44;3.28;;;1.65;;
41514;SDS011;27247;48.020;16.720;2024-03-23T19:07:54;3.33;;;1.57;;
41514;SDS011;27247;48.020;16.720;2024-03-23T19:12:05;1.55;;;1.23;;
41514;SDS011;27247;48.020;16.720;2024-03-23T19:16:15;3.35;;;1.30;;
41514;SDS011;27247;48.020;16.720;2024-03-23T19:20:26;3.90;;;1.93;;
41514;SDS011;27247;48.020;16.720;2024-03-23T19:24:36;2.27;;;1.87;;
41514;SDS011;27247;48.020;16.720;2024-03-23T19:28:46;2.97;;;1.97;;
41514;SDS011;27247;48.020;16.720;2024-03-23T19:32:57;6.83;;;2.13;;
41514;SDS011;27247;48.020;16.720;2024-03-23T19:37:09;3.53;;;2.20;;
41514;SDS011;27247;48.020;16.720;2024-03-23T19:41:19;5.07;;;1.80;;
41514;SDS011;27247;48.020;16.720;2024-03-23T19:45:29;4.53;;;2.60;;
41514;SDS011;27247;48.020;16.720;2024-03-23T19:49:41;3.53;;;2.17;;
41514;SDS011;27247;48.020;16.720;2024-03-23T19:53:51;4.30;;;2.30;;
41514;SDS011;27247;48.020;16.720;2024-03-23T19:58:01;4.73;;;2.10;;
41514;SDS011;27247;48.020;16.720;2024-03-23T20:02:13;4.20;;;2.33;;
41514;SDS011;27247;48.020;16.720;2024-03-23T20:06:23;3.30;;;2.10;;
41514;SDS011;27247;48.020;16.720;2024-03-23T20:10:34;5.00;;;2.67;;
41514;SDS011;27247;48.020;16.720;2024-03-23T20:14:44;3.75;;;2.60;;
41514;SDS011;27247;48.020;16.720;2024-03-23T20:18:56;3.60;;;1.95;;
41514;SDS011;27247;48.020;16.720;2024-03-23T20:23:06;3.83;;;2.15;;
41514;SDS011;27247;48.020;16.720;2024-03-23T20:27:17;4.43;;;2.20;;
41514;SDS011;27247;48.020;16.720;2024-03-23T20:31:28;5.22;;;2.15;;
41514;SDS011;27247;48.020;16.720;2024-03-23T20:35:48;5.17;;;1.70;;
41514;SDS011;27247;48.020;16.720;2024-03-23T20:39:59;2.05;;;1.63;;
41514;SDS011;27247;48.020;16.720;2024-03-23T20:44:09;2.97;;;1.83;;
41514;SDS011;27247;48.020;16.720;2024-03-23T20:48:20;4.95;;;1.85;;
41514;SDS011;27247;48.020;16.720;2024-03-23T20:52:30;4.57;;;1.70;;
41514;SDS011;27247;48.020;16.720;2024-03-23T20:56:40;1.87;;;1.47;;
41514;SDS011;27247;48.020;16.720;2024-03-23T21:00:52;3.40;;;1.60;;
41514;SDS011;27247;48.020;16.720;2024-03-23T21:05:02;2.28;;;1.20;;
41514;SDS011;27247;48.020;16.720;2024-03-23T21:09:13;4.50;;;1.30;;
41514;SDS011;27247;48.020;16.720;2024-03-23T21:13:24;1.10;;;0.90;;
41514;SDS011;27247;48.020;16.720;2024-03-23T21:17:34;2.97;;;1.43;;
41514;SDS011;27247;48.020;16.720;2024-03-23T21:21:44;2.27;;;1.40;;
41514;SDS011;27247;48.020;16.720;2024-03-23T21:25:55;1.73;;;1.00;;
41514;SDS011;27247;48.020;16.720;2024-03-23T21:30:06;4.47;;;1.00;;
41514;SDS011;27247;48.020;16.720;2024-03-23T21:34:17;3.83;;;1.23;;
41514;SDS011;27247;48.020;16.720;2024-03-23T21:38:27;5.30;;;1.30;;
41514;SDS011;27247;48.020;16.720;2024-03-23T21:42:38;2.03;;;1.07;;
41514;SDS011;27247;48.020;16.720;2024-03-23T21:46:48;2.10;;;1.40;;
41514;SDS011;27247;48.020;16.720;2024-03-23T21:50:59;2.80;;;1.47;;
41514;SDS011;27247;48.020;16.720;2024-03-23T21:55:13;8.77;;;1.27;;
41514;SDS011;27247;48.020;16.720;2024-03-23T21:59:23;3.33;;;1.83;;
41514;SDS011;27247;48.020;16.720;2024-03-23T22:03:34;5.45;;;2.00;;
41514;SDS011;27247;48.020;16.720;2024-03-23T22:07:44;4.85;;;2.28;;
41514;SDS011;27247;48.020;16.720;2024-03-23T22:11:55;4.97;;;2.10;;
41514;SDS011;27247;48.020;16.720;2024-03-23T22:16:06;4.18;;;2.20;;
41514;SDS011;27247;48.020;16.720;2024-03-23T22:20:17;3.72;;;2.13;;
41514;SDS011;27247;48.020;16.720;2024-03-23T22:24:28;6.95;;;2.58;;
41514;SDS011;27247;48.020;16.720;2024-03-23T22:28:38;5.13;;;2.40;;
41514;SDS011;27247;48.020;16.720;2024-03-23T22:32:48;7.20;;;2.50;;
41514;SDS011;27247;48.020;16.720;2024-03-23T22:37:00;5.47;;;2.53;;
41514;SDS011;27247;48.020;16.720;2024-03-23T22:41:10;7.37;;;3.40;;
41514;SDS011;27247;48.020;16.720;2024-03-23T22:45:21;6.47;;;3.08;;
41514;SDS011;27247;48.020;16.720;2024-03-23T22:49:31;8.43;;;2.90;;
41514;SDS011;27247;48.020;16.720;2024-03-23T22:53:41;4.63;;;3.00;;
41514;SDS011;27247;48.020;16.720;2024-03-23T22:57:52;5.73;;;2.63;;
41514;SDS011;27247;48.020;16.720;2024-03-23T23:02:02;13.33;;;3.83;;
41514;SDS011;27247;48.020;16.720;2024-03-23T23:06:12;4.77;;;2.13;;
41514;SDS011;27247;48.020;16.720;2024-03-23T23:10:23;3.33;;;2.20;;
41514;SDS011;27247;48.020;16.720;2024-03-23T23:14:33;3.83;;;2.10;;
41514;SDS011;27247;48.020;16.720;2024-03-23T23:18:43;3.33;;;1.87;;
41514;SDS011;27247;48.020;16.720;2024-03-23T23:22:53;3.20;;;1.40;;
41514;SDS011;27247;48.020;16.720;2024-03-23T23:27:04;4.03;;;2.67;;
41514;SDS011;27247;48.020;16.720;2024-03-23T23:31:14;2.72;;;1.65;;
41514;SDS011;27247;48.020;16.720;2024-03-23T23:35:24;4.28;;;1.75;;
41514;SDS011;27247;48.020;16.720;2024-03-23T23:39:35;2.88;;;2.15;;
41514;SDS011;27247;48.020;16.720;2024-03-23T23:43:53;5.20;;;2.07;;
41514;SDS011;27247;48.020;16.720;2024-03-23T23:48:04;2.55;;;2.17;;
41514;SDS011;27247;48.020;16.720;2024-03-23T23:52:16;3.20;;;2.10;;
41514;SDS011;27247;48.020;16.720;2024-03-23T23:56:26;4.23;;;2.40;;
